Zelenograd, Russia
Current Conditions -  °F | °C
As of 11:00 AM on Friday 24 Oct 2014 (Local Time) from UUEE Reporting Station
Broken Clouds Broken Clouds  
Wind Chill: 14°   Ceiling: 2100
Heat Index: 25°   Visibility: 6mi
Dew Point: 18°   Wind: 11mph
Humidity: 74%   Direction: 340°NNW
Pressure: 30.53"   Gusts: NA
Location:  55.94°N, 37.29°E
Report Text: UUEE 240800Z 34005MPS 9999 BKN021 M04/M08 Q1034 7541016225410151 NOSIG
Loading
Personal Weather Stations






























Interactive Weather Map
Tropical Storm Tracking
New forecast layout! Learn more

10-Day Weather Forecast

Advertisements
Track Severe Weather on mobile